createdAt,value
2022-11-22T00:01:19.517Z,75881.63
2022-11-22T00:03:47.207Z,75879.56
2022-11-22T00:06:15.681Z,75887.88
2022-11-22T00:08:43.683Z,75912.81
2022-11-22T00:11:11.624Z,75914.88
2022-11-22T00:13:39.467Z,75929.44
2022-11-22T00:16:09.687Z,75939.84
2022-11-22T00:18:37.394Z,75933.59
2022-11-22T00:21:07.220Z,75941.91
2022-11-22T00:23:35.257Z,75954.38
2022-11-22T00:26:03.307Z,75973.09
2022-11-22T00:28:31.143Z,75962.69
2022-11-22T00:30:59.137Z,75971.03
2022-11-22T00:33:28.220Z,75983.50
2022-11-22T00:35:56.312Z,75991.81
2022-11-22T00:38:24.145Z,75998.03
2022-11-22T00:40:52.144Z,75979.34
2022-11-22T00:43:20.147Z,75983.50
2022-11-22T00:45:48.239Z,75991.81
2022-11-22T00:48:16.336Z,75983.50
2022-11-22T00:50:45.845Z,75979.34
2022-11-22T00:53:13.539Z,75983.50
2022-11-22T00:55:41.548Z,75979.34
2022-11-22T00:58:09.510Z,75987.66
2022-11-22T01:00:37.618Z,76000.13
2022-11-22T01:03:05.430Z,76004.28
2022-11-22T01:05:33.608Z,76016.75
2022-11-22T01:08:02.790Z,76025.06
2022-11-22T01:10:30.768Z,76027.16
2022-11-22T01:12:59.032Z,76039.63
2022-11-22T01:15:27.239Z,76039.63
2022-11-22T01:17:54.936Z,76043.78
2022-11-22T01:20:23.072Z,76052.09
2022-11-22T01:22:51.041Z,76054.19
2022-11-22T01:25:20.495Z,76025.06
2022-11-22T01:27:50.892Z,76004.28
2022-11-22T01:30:20.689Z,76012.59
2022-11-22T01:32:48.400Z,76025.06
2022-11-22T01:35:16.580Z,76010.50
2022-11-22T01:37:44.324Z,76043.78
2022-11-22T01:40:13.241Z,76062.50
2022-11-22T01:42:47.108Z,76050.00
2022-11-22T01:45:43.230Z,76045.84
2022-11-22T01:48:25.322Z,76054.19
2022-11-22T01:50:58.663Z,76070.81
2022-11-22T01:53:30.347Z,76054.19
2022-11-22T01:56:00.804Z,76056.25
2022-11-22T01:58:34.916Z,76074.97
2022-11-22T02:01:03.574Z,76081.19
2022-11-22T02:03:34.122Z,76091.59
2022-11-22T02:06:03.178Z,76091.59
2022-11-22T02:08:38.741Z,76093.69
2022-11-22T02:11:09.076Z,76104.06
2022-11-22T02:13:43.447Z,76102.00
2022-11-22T02:16:12.837Z,76110.31
2022-11-22T02:18:41.015Z,76112.38
2022-11-22T02:21:09.363Z,76124.84
2022-11-22T02:23:48.832Z,76129.00
2022-11-22T02:26:18.475Z,76129.00
2022-11-22T02:28:46.628Z,76124.84
2022-11-22T02:31:38.255Z,76102.00
2022-11-22T02:34:06.372Z,76095.75
2022-11-22T02:36:38.491Z,76077.03
2022-11-22T02:39:07.983Z,76077.03
2022-11-22T02:41:39.113Z,76087.44
2022-11-22T02:44:08.452Z,76095.75
2022-11-22T02:46:36.556Z,76091.59
2022-11-22T02:49:04.592Z,76066.66
2022-11-22T02:51:32.577Z,76095.75
2022-11-22T02:54:00.369Z,76099.91
2022-11-22T02:56:28.443Z,76095.75
2022-11-22T02:58:57.671Z,76108.22
2022-11-22T03:01:26.241Z,76106.16
2022-11-22T03:03:54.151Z,76141.50
2022-11-22T03:06:22.172Z,76137.34
2022-11-22T03:08:55.941Z,76162.28
2022-11-22T03:11:24.643Z,76166.44
2022-11-22T03:13:52.728Z,76162.28
2022-11-22T03:16:22.197Z,76158.13
2022-11-22T03:18:50.055Z,76149.81
2022-11-22T03:21:18.233Z,76149.81
2022-11-22T03:23:46.032Z,76137.34
2022-11-22T03:26:14.127Z,76124.84
2022-11-22T03:28:41.902Z,76116.53
2022-11-22T03:31:10.070Z,76133.19
2022-11-22T03:33:39.268Z,76137.34
2022-11-22T03:36:07.327Z,76145.66
2022-11-22T03:38:35.522Z,76126.94
2022-11-22T03:41:03.587Z,76102.00
2022-11-22T03:43:31.528Z,76120.69
2022-11-22T03:45:59.604Z,76097.84
2022-11-22T03:48:27.607Z,76091.59
2022-11-22T03:51:04.314Z,76087.44
2022-11-22T03:53:32.597Z,76106.16
2022-11-22T03:56:00.864Z,76124.84
2022-11-22T03:58:28.735Z,76158.13
2022-11-22T04:00:57.136Z,76147.72
2022-11-22T04:03:25.113Z,76133.19
2022-11-22T04:05:53.276Z,76124.84
2022-11-22T04:08:22.495Z,76116.53
2022-11-22T04:10:50.953Z,76112.38
2022-11-22T04:13:19.820Z,76137.34
2022-11-22T04:15:46.951Z,76158.13
2022-11-22T04:18:15.568Z,76162.28
2022-11-22T04:21:01.726Z,76166.44
2022-11-22T04:23:33.985Z,76153.97
2022-11-22T04:26:02.537Z,76158.13
2022-11-22T04:28:54.008Z,76153.97
2022-11-22T04:31:35.941Z,76153.97
2022-11-22T04:34:03.801Z,76153.97
2022-11-22T04:36:31.943Z,76147.72
2022-11-22T04:39:01.009Z,76158.13
2022-11-22T04:41:29.108Z,76158.13
2022-11-22T04:44:14.383Z,76156.03
2022-11-22T04:46:42.539Z,76141.50
2022-11-22T04:49:10.259Z,76124.84
2022-11-22T04:51:56.023Z,76112.38
2022-11-22T04:54:25.283Z,76137.34
2022-11-22T04:56:53.335Z,76151.88
2022-11-22T04:59:21.068Z,76158.13
2022-11-22T05:01:49.147Z,76151.88
2022-11-22T05:04:17.284Z,76153.97
2022-11-22T05:06:45.366Z,76158.13
2022-11-22T05:09:13.175Z,76166.44
2022-11-22T05:11:42.707Z,76162.28
2022-11-22T05:14:10.731Z,76141.50
2022-11-22T05:16:38.856Z,76149.81
2022-11-22T05:19:06.565Z,76170.59
2022-11-22T05:21:37.343Z,76183.06
2022-11-22T05:24:04.896Z,76183.06
2022-11-22T05:26:35.034Z,76199.69
2022-11-22T05:29:07.745Z,76212.19
2022-11-22T05:31:37.835Z,76208.00
2022-11-22T05:34:06.093Z,76208.00
2022-11-22T05:36:35.766Z,76195.53
2022-11-22T05:39:05.228Z,76199.69
2022-11-22T05:41:33.175Z,76193.47
2022-11-22T05:44:01.162Z,76191.38
2022-11-22T05:46:31.523Z,76162.28
2022-11-22T05:48:59.532Z,76170.59
2022-11-22T05:51:34.540Z,76183.06
2022-11-22T05:54:02.997Z,76199.69
2022-11-22T05:56:31.239Z,76245.44
2022-11-22T05:58:59.004Z,76274.53
2022-11-22T06:01:27.350Z,76287.03
2022-11-22T06:03:57.210Z,76287.03
2022-11-22T06:06:25.280Z,76284.94
2022-11-22T06:08:53.138Z,76291.19
2022-11-22T06:11:23.648Z,76297.41
2022-11-22T06:13:54.259Z,76299.50
2022-11-22T06:16:23.307Z,76295.34
2022-11-22T06:18:51.787Z,76287.03
2022-11-22T06:21:24.298Z,76289.09
2022-11-22T06:23:54.149Z,76291.19
2022-11-22T06:26:23.933Z,76284.94
2022-11-22T06:28:53.682Z,76266.22
2022-11-22T06:31:23.964Z,76280.78
2022-11-22T06:33:53.716Z,76284.94
2022-11-22T06:36:25.893Z,76278.69
2022-11-22T06:38:54.888Z,76282.88
2022-11-22T06:41:24.528Z,76287.03
2022-11-22T06:43:54.207Z,76299.50
2022-11-22T06:46:24.075Z,76336.91
2022-11-22T06:48:52.271Z,76332.75
2022-11-22T06:51:25.197Z,76318.22
2022-11-22T06:53:55.032Z,76303.66
2022-11-22T06:56:25.167Z,76291.19
2022-11-22T06:58:54.537Z,76287.03
2022-11-22T07:01:25.867Z,76268.31
2022-11-22T07:03:58.038Z,76243.34
2022-11-22T07:06:29.939Z,76232.97
2022-11-22T07:08:59.474Z,76270.38
2022-11-22T07:11:29.589Z,76324.44
2022-11-22T07:14:05.341Z,76336.91
2022-11-22T07:16:36.789Z,76349.41
2022-11-22T07:19:05.255Z,76349.41
2022-11-22T07:21:37.157Z,76349.41
2022-11-22T07:24:06.922Z,76345.22
2022-11-22T07:26:35.221Z,76330.69
2022-11-22T07:29:03.206Z,76303.66
2022-11-22T07:31:31.546Z,76278.69
2022-11-22T07:33:59.482Z,76253.75
2022-11-22T07:36:29.796Z,76228.81
2022-11-22T07:38:59.295Z,76141.50
2022-11-22T07:41:27.281Z,76104.06
2022-11-22T07:43:55.635Z,76095.75
2022-11-22T07:46:26.179Z,76112.38
2022-11-22T07:48:53.956Z,76201.78
2022-11-22T07:51:21.976Z,76243.34
2022-11-22T07:53:49.748Z,76287.03
2022-11-22T07:56:19.326Z,76268.31
2022-11-22T07:58:47.308Z,76245.44
2022-11-22T08:01:17.600Z,76245.44
2022-11-22T08:03:46.310Z,76253.75
2022-11-22T08:06:16.446Z,76270.38
2022-11-22T08:08:45.406Z,76241.28
2022-11-22T08:11:13.524Z,76210.09
2022-11-22T08:13:43.900Z,76178.91
2022-11-22T08:16:14.328Z,76118.63
2022-11-22T08:18:46.455Z,76112.38
2022-11-22T08:21:15.065Z,76120.69
2022-11-22T08:23:44.082Z,76112.38
2022-11-22T08:26:13.618Z,76095.75
2022-11-22T08:28:43.654Z,76072.88
2022-11-22T08:31:13.944Z,76041.69
2022-11-22T08:33:42.152Z,76050.00
2022-11-22T08:36:10.218Z,76087.44
2022-11-22T08:38:38.284Z,76087.44
2022-11-22T08:41:07.491Z,76070.81
2022-11-22T08:43:35.308Z,76054.19
2022-11-22T08:46:05.404Z,76008.44
2022-11-22T08:48:35.575Z,75946.06
2022-11-22T08:51:05.532Z,75846.28
2022-11-22T08:53:34.581Z,75829.66
2022-11-22T08:56:04.008Z,75773.53
2022-11-22T08:58:32.926Z,75723.63
2022-11-22T09:01:06.647Z,75684.16
2022-11-22T09:03:35.355Z,75763.13
2022-11-22T09:09:15.010Z,75892.03
2022-11-22T09:11:40.766Z,75875.38
2022-11-22T09:14:08.483Z,75829.66
2022-11-22T09:16:37.976Z,75767.28
2022-11-22T09:19:05.775Z,75742.34
2022-11-22T09:21:33.836Z,75775.59
2022-11-22T09:24:01.703Z,75796.41
2022-11-22T09:26:30.470Z,75786.00
2022-11-22T09:28:58.423Z,75754.81
2022-11-22T09:31:26.597Z,75746.50
2022-11-22T09:33:55.764Z,75775.59
2022-11-22T09:36:26.767Z,75802.63
2022-11-22T09:38:56.069Z,75731.94
2022-11-22T09:41:47.392Z,75684.16
2022-11-22T09:44:22.748Z,75615.53
2022-11-22T09:46:53.984Z,75534.47
2022-11-22T09:49:31.124Z,75488.75
2022-11-22T09:52:07.325Z,75455.50
2022-11-22T09:54:42.957Z,75422.22
2022-11-22T09:57:16.518Z,75455.50
2022-11-22T09:59:48.421Z,75519.94
2022-11-22T10:02:23.961Z,75555.25
2022-11-22T10:04:58.314Z,75505.38
2022-11-22T10:07:32.068Z,75457.56
2022-11-22T10:10:05.499Z,75451.34
2022-11-22T10:12:39.688Z,75534.47
2022-11-22T10:15:15.419Z,75505.38
2022-11-22T10:17:52.819Z,75447.19
2022-11-22T10:20:23.921Z,75395.22
2022-11-22T10:22:51.977Z,75397.28
2022-11-22T10:25:22.638Z,75359.88
2022-11-22T10:27:57.630Z,75301.69
2022-11-22T10:30:33.641Z,75239.31
2022-11-22T10:33:11.907Z,75176.97
2022-11-22T10:35:55.904Z,75127.09
2022-11-22T10:39:02.241Z,75093.81
2022-11-22T10:41:41.704Z,75052.25
2022-11-22T10:44:24.955Z,75014.84
2022-11-22T10:47:01.747Z,75008.63
2022-11-22T10:49:45.196Z,74977.44
2022-11-22T10:52:25.645Z,75025.25
2022-11-22T10:55:04.489Z,75050.19
2022-11-22T10:57:39.709Z,75035.63
2022-11-22T11:00:19.450Z,75019.00
2022-11-22T11:03:14.775Z,74962.88
2022-11-22T11:06:15.665Z,74915.09
2022-11-22T11:09:23.450Z,74900.53
2022-11-22T11:11:31.190Z,74894.31
2022-11-22T11:14:02.789Z,74931.72
2022-11-22T11:16:34.752Z,74937.94
2022-11-22T11:19:12.262Z,74940.03
2022-11-22T11:21:40.501Z,74942.09
2022-11-22T11:24:13.848Z,74960.81
2022-11-22T11:26:44.166Z,74964.97
2022-11-22T11:29:37.740Z,74977.44
2022-11-22T11:32:14.183Z,74964.97
2022-11-22T11:34:48.023Z,74973.28
2022-11-22T11:37:26.355Z,74979.50
2022-11-22T11:39:55.487Z,74960.81
2022-11-22T11:42:29.968Z,74987.81
2022-11-22T11:45:26.900Z,74998.22
2022-11-22T11:47:55.176Z,75000.31
2022-11-22T11:50:25.529Z,75014.84
2022-11-22T11:52:56.415Z,75023.16
2022-11-22T11:55:26.144Z,75014.84
2022-11-22T11:57:54.842Z,75031.47
2022-11-22T12:00:27.278Z,75019.00
2022-11-22T12:02:59.717Z,75023.16
2022-11-22T12:05:28.738Z,75027.31
2022-11-22T12:07:56.810Z,75010.69
2022-11-22T12:10:32.425Z,75019.00
2022-11-22T12:13:05.114Z,75002.38
2022-11-22T12:15:51.380Z,75002.38
2022-11-22T12:18:33.355Z,74994.06
2022-11-22T12:21:12.719Z,75006.53
2022-11-22T12:23:51.081Z,75014.84
2022-11-22T12:26:21.549Z,75014.84
2022-11-22T12:28:50.509Z,75039.78
2022-11-22T12:31:27.278Z,75048.09
2022-11-22T12:33:59.213Z,75027.31
2022-11-22T12:36:32.899Z,75046.03
2022-11-22T12:39:04.641Z,75052.25
2022-11-22T12:41:34.677Z,75064.72
2022-11-22T12:44:04.421Z,75066.81
2022-11-22T12:46:40.144Z,75060.56
2022-11-22T12:49:16.326Z,75062.66
2022-11-22T12:51:48.384Z,75068.88
2022-11-22T12:54:18.390Z,75106.28
2022-11-22T12:56:51.455Z,75093.81
2022-11-22T12:59:29.024Z,75089.66
2022-11-22T13:02:05.963Z,75077.19
2022-11-22T13:04:45.080Z,75102.13
2022-11-22T13:07:17.262Z,75108.38
2022-11-22T13:09:53.070Z,75110.44
2022-11-22T13:12:30.868Z,75118.78
2022-11-22T13:15:00.486Z,75139.56
2022-11-22T13:17:33.682Z,75154.09
2022-11-22T13:20:06.634Z,75181.13
2022-11-22T13:22:46.640Z,75195.66
2022-11-22T13:25:35.018Z,75206.06
2022-11-22T13:28:12.828Z,75214.38
2022-11-22T13:30:41.436Z,75226.84
2022-11-22T13:33:25.336Z,75226.84
2022-11-22T13:36:36.915Z,75218.53
2022-11-22T13:39:08.536Z,75233.09
2022-11-22T13:41:41.591Z,75239.31
2022-11-22T13:44:34.426Z,75235.16
2022-11-22T13:47:04.416Z,75243.47
2022-11-22T13:49:41.161Z,75253.88
2022-11-22T13:52:48.514Z,75255.94
2022-11-22T13:55:29.860Z,75276.72
2022-11-22T13:58:38.539Z,75291.28
2022-11-22T14:01:33.334Z,75293.34
2022-11-22T14:04:20.991Z,75293.34
2022-11-22T14:06:50.739Z,75301.69
2022-11-22T14:09:33.298Z,75312.06
2022-11-22T14:12:36.419Z,75305.84
2022-11-22T14:15:18.484Z,75310.00
2022-11-22T14:17:54.020Z,75314.16
2022-11-22T14:20:36.337Z,75330.78
2022-11-22T14:23:14.844Z,75330.78
2022-11-22T14:25:55.677Z,75343.25
2022-11-22T14:28:41.922Z,75339.09
2022-11-22T14:31:19.747Z,75351.56
2022-11-22T14:34:18.757Z,75364.03
2022-11-22T14:37:07.195Z,75357.78
2022-11-22T14:40:04.659Z,75353.63
2022-11-22T14:42:52.158Z,75366.09
2022-11-22T14:45:26.126Z,75370.25
2022-11-22T14:48:02.715Z,75378.59
2022-11-22T14:50:34.494Z,75393.13
2022-11-22T14:53:17.370Z,75407.69
2022-11-22T14:55:45.843Z,75407.69
2022-11-22T14:58:22.021Z,75409.75
2022-11-22T15:01:11.892Z,75401.44
2022-11-22T15:09:11.679Z,75405.59
2022-11-22T15:09:18.208Z,75401.44
2022-11-22T15:10:50.542Z,75407.69
2022-11-22T15:13:45.064Z,75426.38
2022-11-22T15:57:26.461Z,75505.38
2022-11-22T15:59:56.996Z,75517.84
2022-11-22T16:02:27.656Z,75526.16
2022-11-22T16:06:06.775Z,75509.53
2022-11-22T16:07:49.737Z,75505.38
2022-11-22T16:10:22.684Z,75522.00
2022-11-22T16:12:52.365Z,75530.31
2022-11-22T16:15:28.692Z,75534.47
2022-11-22T16:18:07.639Z,75538.63
2022-11-22T16:20:36.638Z,75536.56
2022-11-22T16:23:12.462Z,75546.94
2022-11-22T16:25:42.256Z,75551.09
2022-11-22T16:28:22.863Z,75553.19
2022-11-22T16:30:54.249Z,75555.25
2022-11-22T16:33:22.383Z,75555.25
2022-11-22T16:35:54.865Z,75551.09
2022-11-22T16:38:24.252Z,75553.19
2022-11-22T16:40:53.439Z,75555.25
2022-11-22T16:43:23.738Z,75557.34
2022-11-22T16:45:53.196Z,75565.66
2022-11-22T16:48:32.913Z,75573.97
2022-11-22T16:51:04.595Z,75576.06
2022-11-22T16:53:42.385Z,75559.41
2022-11-22T16:56:19.258Z,75549.03
2022-11-22T16:58:47.899Z,75551.09
2022-11-22T17:01:18.998Z,75571.91
2022-11-22T17:03:49.220Z,75571.91
2022-11-22T17:06:19.025Z,75586.44
2022-11-22T17:08:48.121Z,75588.53
2022-11-22T17:11:17.803Z,75594.75
2022-11-22T17:13:46.439Z,75601.00
2022-11-22T17:16:15.169Z,75609.31
2022-11-22T17:18:44.548Z,75630.09
2022-11-22T17:21:17.564Z,75634.25
2022-11-22T17:23:45.911Z,75630.09
2022-11-22T17:26:13.744Z,75638.41
2022-11-22T17:28:41.945Z,75634.25
2022-11-22T17:31:13.175Z,75636.34
2022-11-22T17:33:41.218Z,75650.88
2022-11-22T17:36:20.980Z,75650.88
2022-11-22T17:38:49.285Z,75652.97
2022-11-22T17:41:17.117Z,75655.03
2022-11-22T17:43:45.103Z,75650.88
2022-11-22T17:46:13.070Z,75655.03
2022-11-22T17:48:41.095Z,75655.03
2022-11-22T17:51:12.319Z,75659.19
2022-11-22T17:53:40.651Z,75673.75
2022-11-22T17:56:11.192Z,75679.97
2022-11-22T17:58:40.106Z,75696.63
2022-11-22T18:01:09.664Z,75704.94
2022-11-22T18:03:38.286Z,75713.25
2022-11-22T18:06:06.963Z,75721.56
2022-11-22T18:08:36.719Z,75715.31
2022-11-22T18:11:05.613Z,75725.72
2022-11-22T18:13:35.747Z,75738.19
2022-11-22T18:16:05.425Z,75738.19
2022-11-22T18:18:55.771Z,75754.81
2022-11-22T18:21:21.762Z,75763.13
2022-11-22T18:23:51.342Z,75771.44
2022-11-22T18:31:55.363Z,75788.09
2022-11-22T18:34:24.027Z,75796.41
2022-11-22T18:36:55.730Z,75796.41
2022-11-22T18:39:41.876Z,75796.41
2022-11-22T18:42:13.599Z,75813.03
2022-11-22T18:44:41.926Z,75819.25
2022-11-22T18:47:09.797Z,75829.66
2022-11-22T18:49:38.051Z,75829.66
2022-11-22T18:52:06.526Z,75837.97
2022-11-22T18:54:35.017Z,75850.44
2022-11-22T18:57:04.393Z,75858.75
2022-11-22T18:59:32.573Z,75850.44
2022-11-22T19:02:00.440Z,75862.91
2022-11-22T19:04:29.192Z,75879.56
2022-11-22T19:06:57.266Z,75871.22
2022-11-22T19:09:25.240Z,75881.63
2022-11-22T19:11:58.325Z,75892.03
2022-11-22T19:14:29.620Z,75883.72
2022-11-22T19:16:57.663Z,75887.88
2022-11-22T19:19:25.666Z,75892.03
2022-11-22T19:21:53.658Z,75904.50
2022-11-22T19:24:21.396Z,75912.81
2022-11-22T19:26:49.402Z,75910.72
2022-11-22T19:29:17.373Z,75919.03
2022-11-22T19:31:46.759Z,75931.53
2022-11-22T19:34:15.225Z,75937.75
2022-11-22T19:36:43.769Z,75948.16
2022-11-22T19:39:13.737Z,75954.38
2022-11-22T19:41:43.156Z,75962.69
2022-11-22T19:44:11.513Z,75950.22
2022-11-22T19:46:41.380Z,75971.03
2022-11-22T19:49:11.068Z,75975.19
2022-11-22T19:51:39.309Z,75977.25
2022-11-22T19:54:07.843Z,75987.66
2022-11-22T19:56:38.033Z,75995.97
2022-11-22T19:59:07.596Z,75998.03
2022-11-22T20:01:36.060Z,75995.97
2022-11-22T20:04:06.528Z,76012.59
2022-11-22T20:06:37.346Z,76018.84
2022-11-22T20:09:09.127Z,76023.00
2022-11-22T20:11:38.315Z,76020.91
2022-11-22T20:14:06.467Z,76014.69
2022-11-22T20:16:34.737Z,76029.22
2022-11-22T20:19:06.700Z,76025.06
2022-11-22T20:21:36.895Z,76025.06
2022-11-22T20:24:05.501Z,76025.06
2022-11-22T20:26:34.352Z,76025.06
2022-11-22T20:29:05.723Z,76029.22
2022-11-22T20:31:35.463Z,76025.06
2022-11-22T20:34:03.999Z,76041.69
2022-11-22T20:36:35.045Z,76052.09
2022-11-22T20:39:10.071Z,76041.69
2022-11-22T20:41:40.459Z,76041.69
2022-11-22T20:44:12.531Z,76056.25
2022-11-22T20:46:41.453Z,76062.50
2022-11-22T20:49:09.194Z,76064.56
2022-11-22T20:51:39.591Z,76070.81
2022-11-22T20:54:09.150Z,76072.88
2022-11-22T20:56:37.867Z,76070.81
2022-11-22T20:59:05.785Z,76091.59
2022-11-22T21:01:33.987Z,76091.59
2022-11-22T21:04:02.528Z,76095.75
2022-11-22T21:06:32.780Z,76110.31
2022-11-22T21:09:00.586Z,76099.91
2022-11-22T21:11:30.934Z,76104.06
2022-11-22T21:13:59.171Z,76112.38
2022-11-22T21:16:28.240Z,76122.78
2022-11-22T21:18:57.673Z,76129.00
2022-11-22T21:21:26.307Z,76145.66
2022-11-22T21:23:56.095Z,76149.81
2022-11-22T21:26:25.132Z,76151.88
2022-11-22T21:28:54.623Z,76170.59
2022-11-22T21:31:23.907Z,76166.44
2022-11-22T21:33:52.335Z,76153.97
2022-11-22T21:36:20.974Z,76156.03
2022-11-22T21:38:49.067Z,76162.28
2022-11-22T21:44:08.095Z,76145.66
2022-11-22T21:46:35.823Z,76147.72
2022-11-22T21:49:03.816Z,76153.97
2022-11-22T21:51:32.175Z,76156.03
2022-11-22T21:54:01.075Z,76145.66
2022-11-22T21:56:29.676Z,76147.72
2022-11-22T21:58:58.129Z,76141.50
2022-11-22T22:01:27.858Z,76145.66
2022-11-22T22:03:55.903Z,76137.34
2022-11-22T22:06:25.212Z,76137.34
2022-11-22T22:08:53.429Z,76149.81
2022-11-22T22:11:21.235Z,76151.88
2022-11-22T22:13:49.471Z,76153.97
2022-11-22T22:16:19.133Z,76149.81
2022-11-22T22:18:48.736Z,76153.97
2022-11-22T22:21:17.709Z,76158.13
2022-11-22T22:23:46.785Z,76149.81
2022-11-22T22:26:16.592Z,76158.13
2022-11-22T22:28:46.019Z,76153.97
2022-11-22T22:31:17.031Z,76153.97
2022-11-22T22:33:46.509Z,76153.97
2022-11-22T22:36:16.168Z,76170.59
2022-11-22T22:38:44.214Z,76174.75
2022-11-22T22:41:13.713Z,76178.91
2022-11-22T22:43:44.692Z,76176.84
2022-11-22T22:46:14.422Z,76172.69
2022-11-22T22:48:43.182Z,76170.59
2022-11-22T22:51:16.239Z,76187.22
2022-11-22T22:53:45.434Z,76183.06
2022-11-22T22:56:14.803Z,76181.00
2022-11-22T22:58:42.955Z,76187.22
2022-11-22T23:01:14.063Z,76181.00
2022-11-22T23:03:42.342Z,76203.84
2022-11-22T23:06:12.381Z,76203.84
2022-11-22T23:08:45.707Z,76201.78
2022-11-22T23:11:14.078Z,76205.94
2022-11-22T23:13:44.211Z,76203.84
2022-11-22T23:16:13.544Z,76197.63
2022-11-22T23:18:43.172Z,76191.38
2022-11-22T23:21:12.823Z,76191.38
2022-11-22T23:23:42.316Z,76195.53
2022-11-22T23:26:12.899Z,76189.31
2022-11-22T23:28:40.961Z,76183.06
2022-11-22T23:31:09.952Z,76178.91
2022-11-22T23:33:38.014Z,76183.06
2022-11-22T23:36:07.303Z,76187.22
2022-11-22T23:38:35.843Z,76187.22
2022-11-22T23:41:05.973Z,76183.06
2022-11-22T23:43:34.081Z,76178.91
2022-11-22T23:46:01.940Z,76170.59
2022-11-22T23:48:30.164Z,76174.75
2022-11-22T23:51:03.627Z,76174.75
2022-11-22T23:53:31.627Z,76172.69
2022-11-22T23:56:06.603Z,76187.22
2022-11-22T23:58:35.109Z,76187.22
